createdAt,value
2018-08-03T00:02:27.687Z,18.20
2018-08-03T00:04:56.164Z,18.20
2018-08-03T00:07:24.573Z,19.15
2018-08-03T00:09:53.328Z,18.13
2018-08-03T00:12:21.935Z,19.20
2018-08-03T00:14:50.416Z,18.10
2018-08-03T00:17:18.920Z,19.00
2018-08-03T00:19:47.391Z,18.03
2018-08-03T00:22:15.916Z,16.95
2018-08-03T00:24:44.356Z,18.73
2018-08-03T00:27:12.825Z,19.60
2018-08-03T00:29:41.286Z,18.37
2018-08-03T00:32:09.744Z,17.98
2018-08-03T00:34:38.246Z,19.35
2018-08-03T00:37:07.144Z,19.53
2018-08-03T00:39:35.632Z,20.17
2018-08-03T00:42:04.157Z,19.67
2018-08-03T00:44:32.582Z,20.80
2018-08-03T00:47:01.118Z,19.40
2018-08-03T00:49:29.631Z,21.23
2018-08-03T00:51:58.059Z,19.60
2018-08-03T00:54:26.503Z,20.23
2018-08-03T00:56:54.968Z,20.57
2018-08-03T00:59:23.719Z,20.17
2018-08-03T01:01:52.190Z,19.13
2018-08-03T01:04:20.668Z,20.57
2018-08-03T01:06:49.144Z,20.68
2018-08-03T01:09:17.575Z,19.97
2018-08-03T01:11:46.197Z,22.10
2018-08-03T01:14:14.643Z,21.67
2018-08-03T01:16:43.551Z,22.83
2018-08-03T01:19:14.337Z,22.35
2018-08-03T01:21:44.688Z,21.60
2018-08-03T01:24:13.238Z,21.52
2018-08-03T01:26:41.735Z,23.12
2018-08-03T01:29:10.297Z,20.47
2018-08-03T01:31:38.776Z,21.40
2018-08-03T01:34:07.363Z,21.73
2018-08-03T01:36:35.891Z,21.80
2018-08-03T01:39:08.448Z,23.23
2018-08-03T01:41:37.143Z,21.07
2018-08-03T01:44:05.930Z,22.43
2018-08-03T01:46:34.392Z,24.20
2018-08-03T01:49:02.992Z,23.63
2018-08-03T01:51:31.480Z,23.00
2018-08-03T01:54:00.008Z,21.97
2018-08-03T01:56:29.671Z,20.87
2018-08-03T01:58:58.257Z,22.00
2018-08-03T02:01:26.720Z,22.83
2018-08-03T02:03:55.352Z,21.00
2018-08-03T02:06:24.211Z,20.50
2018-08-03T02:08:52.672Z,21.70
2018-08-03T02:11:21.184Z,22.57
2018-08-03T02:13:49.819Z,22.40
2018-08-03T02:16:18.280Z,23.57
2018-08-03T02:18:46.771Z,24.03
2018-08-03T02:21:15.289Z,24.82
2018-08-03T02:23:43.783Z,22.53
2018-08-03T02:26:12.427Z,23.73
2018-08-03T02:28:40.898Z,25.80
2018-08-03T02:31:09.398Z,24.90
2018-08-03T02:33:37.855Z,25.77
2018-08-03T02:36:06.317Z,24.17
2018-08-03T02:38:34.814Z,25.30
2018-08-03T02:41:03.735Z,22.43
2018-08-03T02:43:32.289Z,22.73
2018-08-03T02:46:00.987Z,24.80
2018-08-03T02:48:29.660Z,24.17
2018-08-03T02:50:59.630Z,25.30
2018-08-03T02:53:28.298Z,26.13
2018-08-03T02:55:56.735Z,28.30
2018-08-03T02:58:25.288Z,27.87
2018-08-03T03:00:53.853Z,28.33
2018-08-03T03:03:22.326Z,27.37
2018-08-03T03:05:50.916Z,26.90
2018-08-03T03:08:19.399Z,27.37
2018-08-03T03:10:47.876Z,29.07
2018-08-03T03:14:19.121Z,29.20
2018-08-03T03:16:47.845Z,27.98
2018-08-03T03:19:16.724Z,26.70
2018-08-03T03:21:45.210Z,27.77
2018-08-03T03:24:13.646Z,25.77
2018-08-03T03:26:42.163Z,28.83
2018-08-03T03:29:10.661Z,27.37
2018-08-03T03:31:39.162Z,28.67
2018-08-03T03:34:07.666Z,29.00
2018-08-03T03:36:36.206Z,27.98
2018-08-03T03:39:09.505Z,23.90
2018-08-03T03:41:38.236Z,22.23
2018-08-03T03:44:07.343Z,22.77
2018-08-03T03:46:36.288Z,20.00
2018-08-03T03:49:04.896Z,21.15
2018-08-03T03:51:33.476Z,19.98
2018-08-03T03:54:01.972Z,21.17
2018-08-03T03:56:30.700Z,21.23
2018-08-03T03:58:59.186Z,23.60
2018-08-03T04:01:28.460Z,23.07
2018-08-03T04:03:57.033Z,22.13
2018-08-03T04:06:26.625Z,22.30
2018-08-03T04:08:55.314Z,21.43
2018-08-03T04:11:23.804Z,20.73
2018-08-03T04:13:52.315Z,23.00
2018-08-03T04:16:20.755Z,21.23
2018-08-03T04:18:49.219Z,19.93
2018-08-03T04:21:17.824Z,23.13
2018-08-03T04:23:46.214Z,23.67
2018-08-03T04:26:14.653Z,21.13
2018-08-03T04:28:43.048Z,22.60
2018-08-03T04:31:11.513Z,20.93
2018-08-03T04:33:39.925Z,30.63
2018-08-03T04:36:08.349Z,99.23
2018-08-03T04:38:37.109Z,46.08
2018-08-03T04:41:05.588Z,28.83
2018-08-03T04:43:34.643Z,29.65
2018-08-03T04:46:03.075Z,24.80
2018-08-03T04:48:31.557Z,25.43
2018-08-03T04:51:00.246Z,25.53
2018-08-03T04:53:28.725Z,28.30
2018-08-03T04:55:57.356Z,24.80
2018-08-03T04:58:25.794Z,25.20
2018-08-03T05:00:54.839Z,26.20
2018-08-03T05:03:23.612Z,24.43
2018-08-03T05:05:52.044Z,25.97
2018-08-03T05:08:20.591Z,25.47
2018-08-03T05:10:49.043Z,26.77
2018-08-03T05:13:17.475Z,25.43
2018-08-03T05:15:45.924Z,25.43
2018-08-03T05:18:14.371Z,24.10
2018-08-03T05:20:42.791Z,23.45
2018-08-03T05:23:11.248Z,26.83
2018-08-03T05:25:40.110Z,25.57
2018-08-03T05:28:08.577Z,27.00
2018-08-03T05:30:37.035Z,28.97
2018-08-03T05:33:05.659Z,27.30
2018-08-03T05:35:34.223Z,30.40
2018-08-03T05:38:03.153Z,29.63
2018-08-03T05:40:31.563Z,29.30
2018-08-03T05:43:00.014Z,28.87
2018-08-03T05:45:28.649Z,28.47
2018-08-03T05:47:57.073Z,31.20
2018-08-03T05:50:25.537Z,31.07
2018-08-03T05:52:53.980Z,31.20
2018-08-03T05:55:22.510Z,32.33
2018-08-03T05:57:51.004Z,30.67
2018-08-03T06:00:19.516Z,29.23
2018-08-03T06:02:47.969Z,31.62
2018-08-03T06:05:16.442Z,30.70
2018-08-03T06:07:44.888Z,30.55
2018-08-03T06:10:13.379Z,32.37
2018-08-03T06:12:41.859Z,30.37
2018-08-03T06:15:11.285Z,31.87
2018-08-03T06:17:40.392Z,29.27
2018-08-03T06:20:11.089Z,32.17
2018-08-03T06:22:39.638Z,30.90
2018-08-03T06:25:09.148Z,31.93
2018-08-03T06:27:37.764Z,32.00
2018-08-03T06:30:08.045Z,29.37
2018-08-03T06:32:37.040Z,29.83
2018-08-03T06:35:05.782Z,31.60
2018-08-03T06:37:34.355Z,32.10
2018-08-03T06:40:03.112Z,31.67
2018-08-03T06:42:31.680Z,30.20
2018-08-03T06:45:00.112Z,31.42
2018-08-03T06:47:28.590Z,29.80
2018-08-03T06:49:57.103Z,30.37
2018-08-03T06:52:25.570Z,30.53
2018-08-03T06:54:54.300Z,32.13
2018-08-03T06:57:22.766Z,30.00
2018-08-03T06:59:51.607Z,29.30
2018-08-03T07:02:20.060Z,28.50
2018-08-03T07:04:48.514Z,30.40
2018-08-03T07:07:17.214Z,28.97
2018-08-03T07:09:45.650Z,28.30
2018-08-03T07:12:14.116Z,28.20
2018-08-03T07:14:42.667Z,28.90
2018-08-03T07:17:11.412Z,25.27
2018-08-03T07:19:39.857Z,25.87
2018-08-03T07:22:08.433Z,24.70
2018-08-03T07:24:36.925Z,25.70
2018-08-03T07:27:05.372Z,23.90
2018-08-03T07:29:33.802Z,25.93
2018-08-03T07:32:02.249Z,25.90
2018-08-03T07:34:30.670Z,25.37
2018-08-03T07:36:59.731Z,25.30
2018-08-03T07:39:28.127Z,26.03
2018-08-03T07:41:57.584Z,24.53
2018-08-03T07:44:26.019Z,23.47
2018-08-03T07:50:25.658Z,22.50
2018-08-03T07:52:54.122Z,23.25
2018-08-03T07:55:22.813Z,23.50
2018-08-03T07:57:51.493Z,22.77
2018-08-03T08:00:20.192Z,24.00
2018-08-03T08:02:48.867Z,24.90
2018-08-03T08:05:17.333Z,23.80
2018-08-03T08:07:45.768Z,23.30
2018-08-03T08:10:14.464Z,22.10
2018-08-03T08:12:42.917Z,22.60
2018-08-03T08:15:11.361Z,21.77
2018-08-03T08:17:40.105Z,22.80
2018-08-03T08:20:08.543Z,21.30
2018-08-03T08:22:37.191Z,23.60
2018-08-03T08:25:05.892Z,22.03
2018-08-03T08:27:34.341Z,21.87
2018-08-03T08:30:02.812Z,21.10
2018-08-03T08:32:31.288Z,22.90
2018-08-03T08:34:59.892Z,23.02
2018-08-03T08:37:28.327Z,21.60
2018-08-03T08:39:56.856Z,19.67
2018-08-03T08:42:25.306Z,19.97
2018-08-03T08:44:53.792Z,24.03
2018-08-03T08:47:22.272Z,21.33
2018-08-03T08:49:50.719Z,19.10
2018-08-03T08:52:19.310Z,20.13
2018-08-03T08:54:47.792Z,20.70
2018-08-03T08:57:16.479Z,18.83
2018-08-03T08:59:45.051Z,18.87
2018-08-03T09:02:13.417Z,19.45
2018-08-03T09:04:41.872Z,18.57
2018-08-03T09:07:10.332Z,17.85
2018-08-03T09:09:38.833Z,18.10
2018-08-03T09:12:07.707Z,18.62
2018-08-03T09:14:36.546Z,19.80
2018-08-03T09:17:05.050Z,19.20
2018-08-03T09:19:33.477Z,19.57
2018-08-03T09:22:01.927Z,19.63
2018-08-03T09:24:30.420Z,19.13
2018-08-03T09:26:58.903Z,18.23
2018-08-03T09:29:27.319Z,18.70
2018-08-03T09:31:55.744Z,18.45
2018-08-03T09:34:24.202Z,18.90
2018-08-03T09:36:52.915Z,19.30
2018-08-03T09:39:21.412Z,17.87
2018-08-03T09:41:49.862Z,17.77
2018-08-03T09:44:18.329Z,17.37
2018-08-03T09:46:47.610Z,18.30
2018-08-03T09:49:16.149Z,18.00
2018-08-03T09:51:44.697Z,18.27
2018-08-03T09:54:13.407Z,18.27
2018-08-03T09:56:42.041Z,16.90
2018-08-03T09:59:10.723Z,16.47
2018-08-03T10:01:39.241Z,16.70
2018-08-03T10:04:07.843Z,16.83
2018-08-03T10:06:36.563Z,16.40
2018-08-03T10:09:07.242Z,15.43
2018-08-03T10:11:35.724Z,16.87
2018-08-03T10:14:05.398Z,16.37
2018-08-03T10:16:34.143Z,14.40
2018-08-03T10:19:02.778Z,13.07
2018-08-03T10:21:31.280Z,13.40
2018-08-03T10:23:59.761Z,12.30
2018-08-03T10:26:28.207Z,13.63
2018-08-03T10:28:56.651Z,13.53
2018-08-03T10:31:25.295Z,15.70
2018-08-03T10:33:53.805Z,13.17
2018-08-03T10:36:22.252Z,14.43
2018-08-03T10:38:50.766Z,12.80
2018-08-03T10:41:19.212Z,13.70
2018-08-03T10:43:47.666Z,13.50
2018-08-03T10:46:16.127Z,13.08
2018-08-03T10:48:44.643Z,12.70
2018-08-03T10:51:13.309Z,14.00
2018-08-03T10:53:42.001Z,13.43
2018-08-03T10:56:10.717Z,14.40
2018-08-03T10:58:39.420Z,13.70
2018-08-03T11:01:07.870Z,13.13
2018-08-03T11:03:36.335Z,13.40
2018-08-03T11:06:04.875Z,14.20
2018-08-03T11:08:33.307Z,12.53
2018-08-03T11:11:01.733Z,14.10
2018-08-03T11:13:30.237Z,13.83
2018-08-03T11:15:58.708Z,12.10
2018-08-03T11:18:27.131Z,13.55
2018-08-03T11:20:56.142Z,13.43
2018-08-03T11:23:24.716Z,13.03
2018-08-03T11:25:53.180Z,13.53
2018-08-03T11:28:21.614Z,14.90
2018-08-03T11:30:50.079Z,12.77
2018-08-03T11:33:18.883Z,14.17
2018-08-03T11:35:47.326Z,14.07
2018-08-03T11:38:16.639Z,13.58
2018-08-03T11:40:45.121Z,14.70
2018-08-03T11:43:13.614Z,14.77
2018-08-03T11:45:42.455Z,13.30
2018-08-03T11:48:10.905Z,15.07
2018-08-03T11:50:39.427Z,13.20
2018-08-03T11:53:07.926Z,12.98
2018-08-03T11:55:36.424Z,14.00
2018-08-03T11:58:04.939Z,12.00
2018-08-03T12:00:33.546Z,12.63
2018-08-03T12:03:02.015Z,12.00
2018-08-03T12:05:30.482Z,12.10
2018-08-03T12:07:58.953Z,12.37
2018-08-03T12:10:27.759Z,11.67
2018-08-03T12:12:56.284Z,12.80
2018-08-03T12:15:24.762Z,11.20
2018-08-03T12:17:53.689Z,12.47
2018-08-03T12:20:22.144Z,12.97
2018-08-03T12:22:50.896Z,13.20
2018-08-03T12:25:19.448Z,13.40
2018-08-03T12:27:47.876Z,14.07
2018-08-03T12:30:16.329Z,14.23
2018-08-03T12:32:44.797Z,13.90
2018-08-03T12:35:13.248Z,13.90
2018-08-03T12:37:41.999Z,12.97
2018-08-03T12:40:10.494Z,12.43
2018-08-03T12:42:39.030Z,12.88
2018-08-03T12:45:09.127Z,10.47
2018-08-03T12:47:37.679Z,9.40
2018-08-03T12:50:06.518Z,10.50
2018-08-03T12:52:35.109Z,9.37
2018-08-03T12:55:03.532Z,8.43
2018-08-03T12:57:32.017Z,7.87
2018-08-03T13:00:00.496Z,8.17
2018-08-03T13:02:29.013Z,7.00
2018-08-03T13:04:57.486Z,7.47
2018-08-03T13:07:26.240Z,6.93
2018-08-03T13:09:54.726Z,6.53
2018-08-03T13:12:23.173Z,6.17
2018-08-03T13:14:51.782Z,6.70
2018-08-03T13:17:20.380Z,5.90
2018-08-03T13:19:48.826Z,5.80
2018-08-03T13:22:21.120Z,6.70
2018-08-03T13:24:50.323Z,6.50
2018-08-03T13:27:21.079Z,6.90
2018-08-03T13:29:49.922Z,7.37
2018-08-03T13:32:18.397Z,7.50
2018-08-03T13:34:46.884Z,8.00
2018-08-03T13:37:15.347Z,7.17
2018-08-03T13:39:43.936Z,7.10
2018-08-03T13:42:12.523Z,7.80
2018-08-03T13:44:41.216Z,7.40
2018-08-03T13:47:09.772Z,8.13
2018-08-03T13:49:38.187Z,7.30
2018-08-03T13:52:06.755Z,9.10
2018-08-03T13:54:35.312Z,9.77
2018-08-03T13:57:03.790Z,10.00
2018-08-03T13:59:32.218Z,11.40
2018-08-03T14:02:11.891Z,11.63
2018-08-03T14:04:40.450Z,12.10
2018-08-03T14:07:09.067Z,12.77
2018-08-03T14:09:37.584Z,13.33
2018-08-03T14:12:06.134Z,12.17
2018-08-03T14:14:34.690Z,12.20
2018-08-03T14:17:03.394Z,12.37
2018-08-03T14:19:32.084Z,12.53
2018-08-03T14:22:00.591Z,12.00
2018-08-03T14:24:29.034Z,13.10
2018-08-03T14:26:57.542Z,12.70
2018-08-03T14:29:25.947Z,11.83
2018-08-03T14:31:54.468Z,12.73
2018-08-03T14:34:22.859Z,13.33
2018-08-03T14:36:51.337Z,13.07
2018-08-03T14:39:19.969Z,13.85
2018-08-03T14:41:48.385Z,14.30
2018-08-03T14:44:16.806Z,13.17
2018-08-03T14:46:45.299Z,14.40
2018-08-03T14:49:13.737Z,41.00
2018-08-03T14:51:42.191Z,13.23
2018-08-03T14:54:10.632Z,13.50
2018-08-03T14:56:39.503Z,12.50
2018-08-03T14:59:07.980Z,12.20
2018-08-03T15:01:36.767Z,19.40
2018-08-03T15:04:05.380Z,11.63
2018-08-03T15:06:33.827Z,16.47
2018-08-03T15:09:02.351Z,11.13
2018-08-03T15:11:30.831Z,11.03
2018-08-03T15:13:59.364Z,10.83
2018-08-03T15:16:27.786Z,11.67
2018-08-03T15:18:56.264Z,10.90
2018-08-03T15:21:24.872Z,14.17
2018-08-03T15:23:53.282Z,11.10
2018-08-03T15:26:21.759Z,11.40
2018-08-03T15:28:50.375Z,10.48
2018-08-03T15:31:18.880Z,10.87
2018-08-03T15:33:47.325Z,10.30
2018-08-03T15:36:15.811Z,9.93
2018-08-03T15:38:44.268Z,8.50
2018-08-03T15:41:12.903Z,7.63
2018-08-03T15:43:41.635Z,8.20
2018-08-03T15:46:10.096Z,7.60
2018-08-03T15:48:38.536Z,8.33
2018-08-03T15:51:07.008Z,7.60
2018-08-03T15:53:35.465Z,8.13
2018-08-03T15:56:03.998Z,6.50
2018-08-03T15:58:32.451Z,7.70
2018-08-03T16:01:01.216Z,8.80
2018-08-03T16:03:29.688Z,12.60
2018-08-03T16:05:58.132Z,7.85
2018-08-03T16:08:26.548Z,7.30
2018-08-03T16:10:55.033Z,6.67
2018-08-03T16:13:23.738Z,7.30
2018-08-03T16:15:52.188Z,7.23
2018-08-03T16:18:20.630Z,6.83
2018-08-03T16:20:49.036Z,7.03
2018-08-03T16:23:17.501Z,7.80
2018-08-03T16:25:45.908Z,7.70
2018-08-03T16:28:14.359Z,6.53
2018-08-03T16:30:42.799Z,6.20
2018-08-03T16:33:11.232Z,6.13
2018-08-03T16:35:39.735Z,7.60
2018-08-03T16:38:08.222Z,10.03
2018-08-03T16:40:36.680Z,6.63
2018-08-03T16:43:05.125Z,6.80
2018-08-03T16:45:33.602Z,9.30
2018-08-03T16:48:02.149Z,10.90
2018-08-03T16:50:30.606Z,9.30
2018-08-03T16:52:59.063Z,8.13
2018-08-03T16:55:27.565Z,14.07
2018-08-03T16:57:56.017Z,6.33
2018-08-03T17:00:24.551Z,7.13
2018-08-03T17:02:53.001Z,7.40
2018-08-03T17:05:21.450Z,6.40
2018-08-03T17:07:50.276Z,6.73
2018-08-03T17:10:18.696Z,6.60
2018-08-03T17:12:47.179Z,7.43
2018-08-03T17:15:15.751Z,6.70
2018-08-03T17:17:44.197Z,6.87
2018-08-03T17:20:12.873Z,7.60
2018-08-03T17:22:41.512Z,7.83
2018-08-03T17:25:09.950Z,7.83
2018-08-03T17:27:38.421Z,8.00
2018-08-03T17:30:07.102Z,8.28
2018-08-03T17:32:35.661Z,7.90
2018-08-03T17:35:04.117Z,8.40
2018-08-03T17:37:32.569Z,9.23
2018-08-03T17:40:01.404Z,8.70
2018-08-03T17:42:29.949Z,8.70
2018-08-03T17:44:58.319Z,9.23
2018-08-03T17:47:26.768Z,8.53
2018-08-03T17:49:55.242Z,9.90
2018-08-03T17:52:24.012Z,9.70
2018-08-03T17:54:52.788Z,9.67
2018-08-03T17:57:21.208Z,10.57
2018-08-03T17:59:49.707Z,10.60
2018-08-03T18:02:18.170Z,13.85
2018-08-03T18:04:46.595Z,23.70
2018-08-03T18:07:15.076Z,21.57
2018-08-03T18:09:43.527Z,14.67
2018-08-03T18:12:11.978Z,15.00
2018-08-03T18:14:40.602Z,13.97
2018-08-03T18:17:09.289Z,12.30
2018-08-03T18:19:37.752Z,12.03
2018-08-03T18:22:06.654Z,12.30
2018-08-03T18:24:35.112Z,11.57
2018-08-03T18:27:04.619Z,12.55
2018-08-03T18:29:33.381Z,12.30
2018-08-03T18:32:02.025Z,15.10
2018-08-03T18:34:30.455Z,18.87
2018-08-03T18:36:58.897Z,13.30
2018-08-03T18:39:27.307Z,13.50
2018-08-03T18:41:55.806Z,14.47
2018-08-03T18:44:24.235Z,13.83
2018-08-03T18:46:52.798Z,14.80
2018-08-03T18:49:21.257Z,14.78
2018-08-03T18:51:49.701Z,13.00
2018-08-03T18:54:18.199Z,13.62
2018-08-03T18:56:46.728Z,14.23
2018-08-03T18:59:15.158Z,17.32
2018-08-03T19:01:43.599Z,16.80
2018-08-03T19:04:12.191Z,16.97
2018-08-03T19:06:40.689Z,16.70
2018-08-03T19:09:09.950Z,16.42
2018-08-03T19:11:38.600Z,15.67
2018-08-03T19:14:07.223Z,16.17
2018-08-03T19:16:35.646Z,17.63
2018-08-03T19:19:04.146Z,17.00
2018-08-03T19:21:32.742Z,16.80
2018-08-03T19:24:01.176Z,15.73
2018-08-03T19:26:29.653Z,16.13
2018-08-03T19:28:58.126Z,15.77
2018-08-03T19:31:26.636Z,16.07
2018-08-03T19:33:55.067Z,19.20
2018-08-03T19:36:23.521Z,16.32
2018-08-03T19:38:51.963Z,15.87
2018-08-03T19:41:20.578Z,15.70
2018-08-03T19:43:49.106Z,15.00
2018-08-03T19:46:19.725Z,15.90
2018-08-03T19:48:48.132Z,16.80
2018-08-03T19:51:16.630Z,18.37
2018-08-03T19:53:45.063Z,19.30
2018-08-03T19:56:13.504Z,17.37
2018-08-03T19:58:42.072Z,16.43
2018-08-03T20:01:10.507Z,17.77
2018-08-03T20:03:38.974Z,17.50
2018-08-03T20:06:07.607Z,16.73
2018-08-03T20:08:36.068Z,19.05
2018-08-03T20:11:04.672Z,19.60
2018-08-03T20:13:33.152Z,21.70
2018-08-03T20:16:01.555Z,18.90
2018-08-03T20:18:29.969Z,22.67
2018-08-03T20:20:58.511Z,24.10
2018-08-03T20:23:27.199Z,21.20
2018-08-03T20:25:55.953Z,19.73
2018-08-03T20:28:24.442Z,21.77
2018-08-03T20:30:53.194Z,21.00
2018-08-03T20:33:22.342Z,21.43
2018-08-03T20:35:50.832Z,20.40
2018-08-03T20:38:19.323Z,19.87
2018-08-03T20:40:48.007Z,16.10
2018-08-03T20:43:16.519Z,17.30
2018-08-03T20:45:44.975Z,20.83
2018-08-03T20:48:13.729Z,23.97
2018-08-03T20:50:42.761Z,23.43
2018-08-03T20:53:11.252Z,18.10
2018-08-03T20:55:39.772Z,19.75
2018-08-03T20:58:08.473Z,19.20
2018-08-03T21:00:36.955Z,18.90
2018-08-03T21:03:05.504Z,19.35
2018-08-03T21:05:34.156Z,20.13
2018-08-03T21:08:02.688Z,19.47
2018-08-03T21:10:31.178Z,18.42
2018-08-03T21:12:59.684Z,20.10
2018-08-03T21:15:28.139Z,19.60
2018-08-03T21:17:56.609Z,17.60
2018-08-03T21:20:25.178Z,19.33
2018-08-03T21:22:53.643Z,17.93
2018-08-03T21:25:22.063Z,17.67
2018-08-03T21:27:50.548Z,18.27
2018-08-03T21:30:18.992Z,19.53
2018-08-03T21:32:47.402Z,20.20
2018-08-03T21:35:16.105Z,19.10
2018-08-03T21:37:44.551Z,20.53
2018-08-03T21:40:13.435Z,19.40
2018-08-03T21:42:41.841Z,19.87
2018-08-03T21:45:10.352Z,19.43
2018-08-03T21:47:38.787Z,19.73
2018-08-03T21:50:07.252Z,20.07
2018-08-03T21:52:35.799Z,20.10
2018-08-03T21:55:04.276Z,21.23
2018-08-03T21:57:32.748Z,21.10
2018-08-03T22:00:01.431Z,21.17
2018-08-03T22:02:29.948Z,20.60
2018-08-03T22:04:58.396Z,20.40
2018-08-03T22:07:26.863Z,21.43
2018-08-03T22:09:55.327Z,22.47
2018-08-03T22:12:23.767Z,22.60
2018-08-03T22:14:52.204Z,21.80
2018-08-03T22:17:20.657Z,21.93
2018-08-03T22:19:49.088Z,22.23
2018-08-03T22:22:17.590Z,20.55
2018-08-03T22:24:46.025Z,20.90
2018-08-03T22:27:14.583Z,21.00
2018-08-03T22:29:42.992Z,20.87
2018-08-03T22:32:11.637Z,23.33
2018-08-03T22:34:40.108Z,22.67
2018-08-03T22:37:08.666Z,21.90
2018-08-03T22:39:37.156Z,24.67
2018-08-03T22:42:05.620Z,24.87
2018-08-03T22:44:34.099Z,23.47
2018-08-03T22:47:02.530Z,25.12
2018-08-03T22:49:30.964Z,25.07
2018-08-03T22:51:59.484Z,27.70
2018-08-03T22:54:27.908Z,28.30
2018-08-03T22:56:56.368Z,31.80
2018-08-03T22:59:24.868Z,32.63
2018-08-03T23:01:53.323Z,32.45
2018-08-03T23:04:21.834Z,32.57
2018-08-03T23:06:50.262Z,30.10
2018-08-03T23:09:18.723Z,33.70
2018-08-03T23:11:47.294Z,31.02
2018-08-03T23:14:15.788Z,33.90
2018-08-03T23:16:44.367Z,34.37
2018-08-03T23:19:12.841Z,32.60
2018-08-03T23:21:41.498Z,33.20
2018-08-03T23:24:09.983Z,37.73
2018-08-03T23:26:38.399Z,33.90
2018-08-03T23:29:06.858Z,34.43
2018-08-03T23:31:35.370Z,31.70
2018-08-03T23:34:03.836Z,32.87
2018-08-03T23:36:32.272Z,32.30
2018-08-03T23:39:00.737Z,33.50
2018-08-03T23:41:29.427Z,31.57
2018-08-03T23:43:57.882Z,31.12
2018-08-03T23:46:26.372Z,31.80
2018-08-03T23:48:54.814Z,33.80
2018-08-03T23:51:23.542Z,34.33
2018-08-03T23:53:51.976Z,34.60
2018-08-03T23:56:20.453Z,32.00
2018-08-03T23:58:49.320Z,32.40
